Time;durP1;ratioP1;P1;durP2;ratioP2;P2;SDS_P1;SDS_P2;PMS_P1;PMS_P2;Temp;Humidity;BMP_temperature;BMP_pressure;BME280_temperature;BME280_humidity;BME280_pressure;Samples;Min_cycle;Max_cycle;Signal;HPM_P1;HPM_P2
2023/07/09 04:31:05;;;;;;;;;10.50;9.50;;;;;32.53;41.60;101353.00;5052203;27;45490;-70
2023/07/09 04:33:30;;;;;;;;;8.75;8.75;;;;;32.59;41.33;101354.09;4994066;28;45488;-71
2023/07/09 04:35:55;;;;;;;;;9.00;9.00;;;;;32.64;41.15;101351.59;4994629;28;45443;-72
2023/07/09 04:38:21;;;;;;;;;11.00;9.25;;;;;32.67;41.36;101351.19;4987211;28;45511;-71
2023/07/09 04:40:46;;;;;;;;;8.00;8.00;;;;;32.68;41.07;101355.69;4974868;28;45399;-73
2023/07/09 04:43:12;;;;;;;;;10.00;8.75;;;;;32.65;40.71;101347.78;4974810;28;45437;-71
2023/07/09 04:45:37;;;;;;;;;8.00;8.00;;;;;32.68;41.05;101341.78;4974126;28;46218;-72
2023/07/09 04:48:03;;;;;;;;;10.25;10.25;;;;;32.71;41.02;101354.47;4974663;28;46240;-72
2023/07/09 04:50:28;;;;;;;;;10.00;8.50;;;;;32.69;41.12;101341.63;4957203;28;45350;-73
2023/07/09 04:52:54;;;;;;;;;7.00;7.00;;;;;32.75;40.37;101333.56;4974609;28;45721;-70
2023/07/09 04:55:19;;;;;;;;;8.00;7.50;;;;;32.86;40.89;101338.56;4957395;28;45643;-73
2023/07/09 04:57:45;;;;;;;;;10.75;10.25;;;;;32.87;40.24;101334.72;4974327;28;51391;-73
2023/07/09 05:00:11;;;;;;;;;8.00;8.00;;;;;32.86;40.81;101335.78;4974263;28;45278;-71
2023/07/09 05:02:38;;;;;;;;;9.00;9.00;;;;;32.88;40.54;101330.91;4974416;28;45532;-75
2023/07/09 05:05:05;;;;;;;;;10.25;9.25;;;;;32.89;40.23;101324.28;4973937;28;45354;-71
2023/07/09 05:07:32;;;;;;;;;10.00;9.50;;;;;32.90;40.35;101328.78;4968375;28;45422;-73
2023/07/09 05:09:58;;;;;;;;;9.00;9.00;;;;;32.95;40.03;101337.34;4993638;28;45399;-73
2023/07/09 05:12:26;;;;;;;;;10.50;8.75;;;;;33.02;40.25;101332.69;4994342;28;45439;-76
2023/07/09 05:14:52;;;;;;;;;9.25;9.25;;;;;33.08;39.93;101337.47;4993815;28;45455;-76
2023/07/09 05:17:17;;;;;;;;;9.75;8.50;;;;;33.11;39.65;101325.91;4993616;28;45341;-71
2023/07/09 05:19:42;;;;;;;;;9.75;8.75;;;;;33.19;39.67;101320.19;4993492;28;56573;-71
2023/07/09 05:22:08;;;;;;;;;8.75;8.75;;;;;33.21;39.14;101323.66;4993939;28;45280;-72
2023/07/09 05:24:33;;;;;;;;;11.00;9.50;;;;;33.25;39.71;101324.13;4993515;28;48405;-70
2023/07/09 05:26:58;;;;;;;;;8.00;6.75;;;;;33.27;39.13;101331.19;4993749;28;46063;-71
2023/07/09 05:29:24;;;;;;;;;9.50;9.50;;;;;33.27;38.63;101347.88;4993161;28;48791;-71
2023/07/09 05:31:50;;;;;;;;;11.75;9.75;;;;;33.34;39.27;101345.16;4999961;28;45482;-70
2023/07/09 05:34:17;;;;;;;;;7.00;6.50;;;;;33.43;38.93;101346.69;5013157;28;45564;-72
2023/07/09 05:36:42;;;;;;;;;10.25;9.00;;;;;33.50;38.86;101338.38;5013064;28;47679;-73
2023/07/09 05:39:08;;;;;;;;;7.25;7.25;;;;;33.59;38.40;101338.00;5001263;28;45393;-72
2023/07/09 05:41:33;;;;;;;;;10.50;10.50;;;;;33.57;38.36;101334.56;5016887;28;45448;-71
2023/07/09 05:43:58;;;;;;;;;8.25;8.25;;;;;33.68;38.11;101347.03;5016455;28;46139;-71
2023/07/09 05:46:24;;;;;;;;;10.50;10.50;;;;;33.65;37.99;101350.22;4983906;28;48485;-72
2023/07/09 05:48:49;;;;;;;;;7.00;7.00;;;;;33.71;37.97;101332.69;4996841;28;45297;-72
2023/07/09 05:51:14;;;;;;;;;10.00;10.00;;;;;33.69;37.49;101318.13;4997062;28;45671;-72
2023/07/09 05:53:40;;;;;;;;;11.50;9.00;;;;;33.72;37.56;101321.38;4996455;28;45377;-71
2023/07/09 05:56:06;;;;;;;;;8.25;8.25;;;;;33.73;37.39;101330.59;4996804;28;45497;-71
2023/07/09 05:58:31;;;;;;;;;8.25;7.75;;;;;33.77;37.38;101332.75;5016436;28;45289;-72
2023/07/09 06:00:57;;;;;;;;;10.00;7.25;;;;;33.86;36.75;101330.63;5016602;28;45312;-71
2023/07/09 06:03:24;;;;;;;;;8.00;7.50;;;;;34.03;36.74;101331.97;5016204;28;45915;-73
2023/07/09 06:05:50;;;;;;;;;10.00;8.50;;;;;34.00;36.63;101326.00;5016320;28;45436;-72
2023/07/09 06:08:18;;;;;;;;;7.00;7.00;;;;;34.04;36.83;101328.13;5016026;28;45686;-75
2023/07/09 06:10:55;;;;;;;;;5.00;5.00;;;;;34.02;36.52;101330.28;4999841;28;45403;-76
2023/07/09 06:13:22;;;;;;;;;9.50;7.75;;;;;34.04;36.21;101318.94;5017886;28;45420;-75
2023/07/09 06:15:48;;;;;;;;;11.25;9.75;;;;;33.99;36.59;101319.56;5019316;28;46430;-80
2023/07/09 06:18:14;;;;;;;;;8.00;7.00;;;;;34.07;36.44;101336.06;5019950;28;45527;-81
2023/07/09 06:20:39;;;;;;;;;7.50;7.00;;;;;34.09;36.24;101341.44;5001722;28;45734;-78
2023/07/09 06:23:04;;;;;;;;;7.75;7.75;;;;;34.15;36.29;101348.94;5001948;28;46020;-79
2023/07/09 06:25:32;;;;;;;;;9.25;9.00;;;;;34.01;36.09;101342.50;5020104;28;45418;-80
2023/07/09 06:28:00;;;;;;;;;10.25;8.50;;;;;34.09;36.53;101356.22;5020392;28;45453;-79
2023/07/09 06:30:26;;;;;;;;;8.00;8.00;;;;;34.13;36.06;101367.75;5019739;28;45332;-79
2023/07/09 06:32:51;;;;;;;;;9.25;7.50;;;;;34.15;36.03;101374.84;5019133;28;45270;-79
2023/07/09 06:35:16;;;;;;;;;8.75;8.75;;;;;34.16;36.20;101372.91;5000678;28;58792;-79
2023/07/09 06:37:41;;;;;;;;;7.75;5.00;;;;;34.20;36.08;101374.19;5018076;28;45471;-80
2023/07/09 06:40:08;;;;;;;;;9.00;8.75;;;;;34.17;36.29;101372.72;5000183;28;45300;-79
2023/07/09 06:42:36;;;;;;;;;15.50;13.50;;;;;34.17;36.04;101371.84;4999881;28;45449;-79
2023/07/09 06:45:04;;;;;;;;;13.00;12.75;;;;;34.10;36.06;101359.84;4998553;28;46621;-80
2023/07/09 06:47:30;;;;;;;;;10.75;8.25;;;;;34.20;35.46;101379.75;4998379;28;45365;-79
2023/07/09 06:49:55;;;;;;;;;7.75;6.25;;;;;34.16;35.13;101389.63;4996697;28;45503;-79
2023/07/09 06:52:20;;;;;;;;;8.00;6.50;;;;;34.07;34.89;101386.16;4998044;28;45282;-79
2023/07/09 06:54:46;;;;;;;;;6.00;6.00;;;;;34.00;35.01;101390.84;4997973;28;45535;-80
2023/07/09 06:57:11;;;;;;;;;6.75;6.75;;;;;34.14;34.81;101397.31;4998552;28;45209;-80
2023/07/09 06:59:37;;;;;;;;;7.75;7.75;;;;;34.27;34.90;101390.97;5003978;28;45560;-79
2023/07/09 07:02:03;;;;;;;;;8.75;6.50;;;;;34.31;35.08;101387.53;5017567;28;45250;-78
2023/07/09 07:04:29;;;;;;;;;7.00;7.00;;;;;34.18;34.74;101363.31;5017042;28;45561;-80
2023/07/09 07:06:56;;;;;;;;;7.25;6.50;;;;;34.31;35.28;101372.78;5017637;28;45471;-80
2023/07/09 07:09:22;;;;;;;;;8.00;7.00;;;;;34.43;35.85;101385.00;5017322;28;45355;-79
2023/07/09 07:11:47;;;;;;;;;8.75;8.75;;;;;34.34;36.05;101384.34;4999209;28;45476;-78
2023/07/09 07:14:12;;;;;;;;;9.00;7.00;;;;;34.39;36.17;101373.44;4998181;28;53444;-79
2023/07/09 07:16:38;;;;;;;;;10.00;10.00;;;;;34.21;36.58;101359.22;5007650;28;45326;-79
2023/07/09 07:19:03;;;;;;;;;9.25;9.25;;;;;34.01;37.59;101383.38;4996126;28;45412;-80
2023/07/09 07:21:28;;;;;;;;;6.75;6.75;;;;;33.88;37.47;101400.00;4995747;28;45573;-80
2023/07/09 07:23:54;;;;;;;;;7.75;7.75;;;;;33.60;38.07;101378.63;4995767;28;45512;-79
2023/07/09 07:26:19;;;;;;;;;11.25;8.25;;;;;33.69;37.76;101376.53;4996460;28;45266;-80
2023/07/09 07:28:46;;;;;;;;;9.75;9.75;;;;;33.51;37.89;101367.91;4978252;28;45248;-78
2023/07/09 07:31:12;;;;;;;;;8.50;8.50;;;;;33.52;38.06;101403.81;4977425;28;45620;-78
2023/07/09 07:33:40;;;;;;;;;8.25;8.25;;;;;33.39;38.38;101412.97;4995704;28;46403;-80
2023/07/09 07:36:06;;;;;;;;;10.00;8.25;;;;;33.08;38.86;101406.94;4995685;28;45417;-80
2023/07/09 07:38:31;;;;;;;;;9.25;8.00;;;;;32.79;38.98;101413.50;4995491;28;45370;-80
2023/07/09 07:40:57;;;;;;;;;7.50;7.50;;;;;32.85;39.22;101420.16;4995510;28;45563;-79
2023/07/09 07:43:22;;;;;;;;;9.00;9.00;;;;;32.80;39.44;101422.69;4995088;28;52320;-79
2023/07/09 07:45:49;;;;;;;;;9.00;9.00;;;;;32.80;38.65;101431.03;4995191;28;45344;-79
2023/07/09 07:48:14;;;;;;;;;9.75;9.75;;;;;32.64;39.81;101448.78;4978207;28;45329;-77
2023/07/09 07:50:40;;;;;;;;;13.00;9.75;;;;;32.59;39.42;101468.78;4995197;28;45526;-79
2023/07/09 07:53:07;;;;;;;;;12.00;11.00;;;;;32.54;39.28;101493.53;4994813;28;46119;-80
2023/07/09 07:55:33;;;;;;;;;9.00;8.75;;;;;32.59;39.22;101507.66;4995193;28;45270;-79
2023/07/09 07:57:59;;;;;;;;;9.75;9.75;;;;;32.44;39.23;101478.22;4993812;28;45333;-79
2023/07/09 08:00:25;;;;;;;;;10.00;10.00;;;;;32.79;38.84;101490.41;4995272;28;45572;-78
2023/07/09 08:02:50;;;;;;;;;7.25;7.25;;;;;32.89;39.35;101497.38;4994459;28;46143;-80
2023/07/09 08:05:16;;;;;;;;;10.25;8.75;;;;;32.84;38.69;101482.31;4995189;28;45353;-79
2023/07/09 08:07:41;;;;;;;;;9.50;8.00;;;;;32.95;38.73;101482.66;4993541;28;45349;-79
2023/07/09 08:10:08;;;;;;;;;6.25;6.25;;;;;32.99;38.33;101461.78;4995860;28;45484;-79
2023/07/09 08:12:33;;;;;;;;;8.50;8.50;;;;;33.08;38.33;101448.59;4995276;28;45499;-80
2023/07/09 08:14:58;;;;;;;;;6.75;6.75;;;;;33.11;38.15;101447.31;4995507;28;45589;-78
2023/07/09 08:17:25;;;;;;;;;9.25;8.00;;;;;33.09;37.86;101444.78;4994965;28;45573;-79
2023/07/09 08:19:54;;;;;;;;;9.50;9.25;;;;;33.14;37.82;101449.72;4993536;28;45358;-80
2023/07/09 08:22:21;;;;;;;;;6.00;6.00;;;;;33.16;37.85;101455.94;5013916;28;45405;-78
2023/07/09 08:24:47;;;;;;;;;6.50;6.50;;;;;33.09;37.93;101463.38;5014470;28;45284;-79
2023/07/09 08:27:13;;;;;;;;;9.25;9.25;;;;;33.03;38.07;101453.88;5014552;28;45476;-80
2023/07/09 08:29:40;;;;;;;;;8.50;8.50;;;;;33.02;38.96;101443.81;5014511;28;45340;-79
2023/07/09 08:32:05;;;;;;;;;9.75;8.00;;;;;32.88;39.32;101422.56;5014720;28;45476;-81
2023/07/09 08:34:31;;;;;;;;;7.00;7.00;;;;;32.94;38.66;101452.31;5014550;28;45340;-80
2023/07/09 08:36:57;;;;;;;;;10.00;8.50;;;;;32.78;39.21;101442.34;5014303;28;45464;-77
2023/07/09 08:39:22;;;;;;;;;10.00;9.25;;;;;32.71;39.26;101441.41;4998847;28;45268;-80
2023/07/09 08:42:00;;;;;;;;;7.25;7.25;;;;;32.85;39.54;101489.59;4994295;28;46022;-79
2023/07/09 08:44:52;;;;;;;;;8.25;7.00;;;;;32.84;39.71;101490.66;4994293;28;45478;-79
2023/07/09 08:47:52;;;;;;;;;9.50;9.00;;;;;32.78;40.30;101489.53;4982263;28;45539;-79
2023/07/09 08:50:32;;;;;;;;;7.75;7.00;;;;;32.86;39.87;101505.22;4998522;28;45533;-78
2023/07/09 08:52:58;;;;;;;;;12.50;10.50;;;;;32.97;39.35;101508.34;4994010;28;45333;-78
2023/07/09 08:55:29;;;;;;;;;7.25;7.25;;;;;33.04;39.17;101486.16;4994267;28;45240;-79
2023/07/09 08:58:09;;;;;;;;;7.50;7.25;;;;;33.18;39.30;101498.25;4994487;28;45333;-79
2023/07/09 09:01:14;;;;;;;;;9.25;9.25;;;;;33.26;38.89;101509.28;5013720;28;45451;-79
2023/07/09 09:03:58;;;;;;;;;10.00;8.00;;;;;33.14;38.99;101508.06;5002120;28;45688;-79
2023/07/09 09:06:29;;;;;;;;;10.25;9.75;;;;;33.23;38.53;101513.31;5013820;28;45383;-81
2023/07/09 09:09:09;;;;;;;;;5.25;5.25;;;;;33.32;38.70;101501.00;5014153;28;45332;-80
2023/07/09 09:11:53;;;;;;;;;7.00;7.00;;;;;33.34;39.24;101484.13;5014001;28;45446;-79
2023/07/09 09:14:27;;;;;;;;;12.00;11.00;;;;;33.42;38.41;101465.38;5015457;28;45386;-79
2023/07/09 09:16:53;;;;;;;;;8.75;8.75;;;;;33.28;38.89;101457.13;5017423;28;45333;-79
2023/07/09 09:19:33;;;;;;;;;9.75;9.25;;;;;33.24;38.33;101480.84;5017272;28;45450;-78
2023/07/09 09:22:05;;;;;;;;;10.00;9.00;;;;;33.21;38.18;101482.09;5017319;28;45458;-80
2023/07/09 09:24:35;;;;;;;;;8.75;7.25;;;;;33.16;38.60;101483.72;5017024;28;46046;-78
2023/07/09 09:27:01;;;;;;;;;12.00;9.50;;;;;33.35;38.47;101495.03;5017236;28;45240;-79
2023/07/09 09:29:26;;;;;;;;;10.25;10.25;;;;;33.49;37.58;101497.94;5016953;28;45556;-79
2023/07/09 09:31:55;;;;;;;;;11.00;9.75;;;;;33.56;38.30;101505.25;5016876;28;45550;-79
2023/07/09 09:34:29;;;;;;;;;10.00;8.75;;;;;33.57;37.48;101487.50;5017341;28;46492;-80
2023/07/09 09:36:58;;;;;;;;;8.75;7.75;;;;;33.70;37.45;101493.16;5016840;28;45352;-79
2023/07/09 09:39:25;;;;;;;;;11.50;10.25;;;;;33.79;37.52;101505.88;5016799;28;45439;-79
2023/07/09 09:41:54;;;;;;;;;8.50;8.50;;;;;33.61;37.84;101511.06;4997639;28;45978;-76
2023/07/09 09:44:25;;;;;;;;;10.50;10.00;;;;;33.51;37.71;101515.28;5016506;28;46238;-79
2023/07/09 09:46:51;;;;;;;;;10.50;10.25;;;;;33.46;37.71;101504.75;4998651;28;45378;-79
2023/07/09 09:49:16;;;;;;;;;9.50;8.50;;;;;33.58;37.64;101528.16;4999463;28;45413;-79
2023/07/09 09:51:45;;;;;;;;;8.50;8.25;;;;;33.50;38.39;101524.69;5016607;28;45549;-79
2023/07/09 09:54:22;;;;;;;;;11.50;10.25;;;;;33.46;39.26;101526.13;5016630;28;46239;-79
2023/07/09 09:56:50;;;;;;;;;10.75;9.75;;;;;33.44;39.47;101543.00;5016686;28;45402;-79
2023/07/09 09:59:29;;;;;;;;;7.75;7.75;;;;;33.26;40.27;101523.19;5016594;28;45327;-78
2023/07/09 10:02:00;;;;;;;;;12.00;10.75;;;;;33.17;39.93;101525.22;5017019;28;45491;-78
2023/07/09 10:04:26;;;;;;;;;10.25;8.75;;;;;33.26;39.34;101523.19;5016174;28;46110;-79
2023/07/09 10:07:03;;;;;;;;;8.75;8.75;;;;;33.23;40.07;101537.47;5016820;28;45363;-80
2023/07/09 10:09:54;;;;;;;;;7.25;7.25;;;;;33.30;39.66;101521.72;5016526;28;45236;-78
2023/07/09 10:12:22;;;;;;;;;9.75;9.75;;;;;33.37;39.63;101514.28;5016520;28;45400;-78
2023/07/09 10:15:08;;;;;;;;;11.50;11.50;;;;;33.46;40.33;101479.72;5016102;28;45303;-78
2023/07/09 10:17:53;;;;;;;;;9.25;9.25;;;;;33.55;40.09;101458.19;5016333;28;45296;-80
2023/07/09 10:20:18;;;;;;;;;10.50;10.50;;;;;33.59;40.49;101443.69;5016607;28;45170;-78
2023/07/09 10:22:54;;;;;;;;;12.75;12.75;;;;;33.66;40.80;101450.13;5015935;28;45510;-79
2023/07/09 10:25:34;;;;;;;;;13.00;9.00;;;;;33.74;40.22;101457.50;5016023;28;46089;-79
2023/07/09 10:28:09;;;;;;;;;12.25;12.25;;;;;33.96;39.59;101461.03;4998411;28;45286;-80
2023/07/09 10:31:12;;;;;;;;;12.25;10.50;;;;;34.08;38.70;101471.38;5015985;28;45378;-79
2023/07/09 10:33:53;;;;;;;;;11.00;11.00;;;;;34.13;39.10;101477.16;5011891;28;45539;-78
2023/07/09 10:36:46;;;;;;;;;10.50;9.75;;;;;34.15;39.33;101475.03;5015943;28;45399;-79
2023/07/09 10:39:27;;;;;;;;;14.25;11.00;;;;;34.17;39.63;101477.63;5016171;28;45683;-79
2023/07/09 10:41:57;;;;;;;;;11.75;11.75;;;;;34.20;38.81;101495.84;5016131;28;45368;-81
2023/07/09 10:44:34;;;;;;;;;13.75;12.50;;;;;34.32;39.73;101511.75;5015779;28;45405;-80
2023/07/09 10:47:07;;;;;;;;;10.75;10.00;;;;;34.38;39.13;101510.06;4997716;28;47231;-79
2023/07/09 10:49:37;;;;;;;;;10.50;10.50;;;;;34.34;39.23;101495.72;5016035;28;45521;-80
2023/07/09 10:52:11;;;;;;;;;14.00;11.50;;;;;34.37;39.45;101502.78;5015509;28;45352;-81
2023/07/09 10:54:47;;;;;;;;;8.75;8.75;;;;;34.40;39.01;101510.72;5015589;28;45346;-79
2023/07/09 10:57:29;;;;;;;;;11.00;11.00;;;;;34.25;39.27;101505.31;5015968;28;46190;-80
2023/07/09 10:59:54;;;;;;;;;9.50;9.50;;;;;34.33;39.38;101504.28;5015493;28;45482;-80
2023/07/09 11:02:32;;;;;;;;;11.25;11.25;;;;;34.40;39.38;101496.81;5016146;28;45388;-80
2023/07/09 11:04:58;;;;;;;;;11.25;11.25;;;;;34.62;39.15;101503.97;5015736;28;45669;-79
2023/07/09 11:07:47;;;;;;;;;13.50;13.50;;;;;34.75;38.58;101504.03;4998166;28;46120;-79
2023/07/09 11:10:23;;;;;;;;;12.50;12.50;;;;;34.75;39.13;101495.66;5014652;28;45486;-80
2023/07/09 11:12:59;;;;;;;;;16.75;13.25;;;;;34.69;38.87;101476.13;5015373;28;45378;-72
2023/07/09 11:15:34;;;;;;;;;15.75;14.00;;;;;34.81;38.84;101472.53;5015661;28;45522;-71
2023/07/09 11:17:59;;;;;;;;;16.50;15.50;;;;;34.74;38.44;101470.78;5015288;28;46211;-69
2023/07/09 11:20:33;;;;;;;;;11.50;11.50;;;;;34.70;39.02;101461.13;5015409;28;45458;-71
2023/07/09 11:23:16;;;;;;;;;13.00;13.00;;;;;34.79;39.10;101455.16;5015757;28;45328;-71
2023/07/09 11:25:44;;;;;;;;;14.50;14.50;;;;;34.87;38.36;101446.63;5015191;28;45434;-71
2023/07/09 11:28:11;;;;;;;;;12.00;12.00;;;;;34.93;38.44;101439.31;5015115;28;45229;-70
2023/07/09 11:30:52;;;;;;;;;14.50;14.00;;;;;35.10;37.94;101450.91;5014900;28;45386;-74
2023/07/09 11:33:25;;;;;;;;;9.25;9.25;;;;;35.26;37.64;101453.28;4997255;28;45396;-72
2023/07/09 11:36:11;;;;;;;;;14.75;13.00;;;;;35.30;36.49;101457.38;5014487;28;45458;-73
2023/07/09 11:38:41;;;;;;;;;12.50;10.25;;;;;35.34;36.51;101460.56;5014863;28;46091;-71
2023/07/09 11:41:32;;;;;;;;;13.50;12.25;;;;;35.49;36.28;101472.34;5015058;28;45357;-69
2023/07/09 11:44:24;;;;;;;;;10.75;10.75;;;;;35.59;36.45;101456.03;5014811;28;45244;-73
2023/07/09 11:47:01;;;;;;;;;13.50;11.75;;;;;35.73;35.84;101454.94;5014532;28;45353;-76
2023/07/09 11:49:58;;;;;;;;;13.25;13.25;;;;;35.84;36.06;101461.81;5015121;28;45170;-75
2023/07/09 11:52:47;;;;;;;;;12.50;10.75;;;;;35.84;35.06;101433.91;5014434;28;45391;-77
2023/07/09 11:55:26;;;;;;;;;10.75;9.75;;;;;36.02;35.12;101450.78;5014424;28;45375;-79
2023/07/09 11:57:55;;;;;;;;;13.00;12.00;;;;;36.19;34.90;101438.09;5015093;28;45301;-78
2023/07/09 12:00:21;;;;;;;;;10.75;10.00;;;;;36.34;34.70;101437.78;5001812;28;45964;-76
2023/07/09 12:02:46;;;;;;;;;10.50;10.50;;;;;36.33;34.34;101448.09;5014603;28;45327;-78
2023/07/09 12:05:13;;;;;;;;;8.50;8.50;;;;;36.40;34.24;101436.91;4997008;28;45530;-78
2023/07/09 12:07:40;;;;;;;;;10.00;10.00;;;;;36.40;33.45;101425.75;5014527;28;45589;-77
2023/07/09 12:10:19;;;;;;;;;10.00;10.00;;;;;36.44;33.49;101427.00;5014720;28;45668;-79
2023/07/09 12:12:45;;;;;;;;;11.00;9.75;;;;;36.55;33.21;101433.81;5014524;28;45512;-77
2023/07/09 12:15:19;;;;;;;;;7.25;7.25;;;;;36.57;33.41;101418.56;5014723;28;45466;-77
2023/07/09 12:17:57;;;;;;;;;10.75;10.75;;;;;36.63;32.94;101422.38;5014444;28;45670;-78
2023/07/09 12:20:25;;;;;;;;;7.25;7.25;;;;;36.53;33.10;101408.03;5014594;28;45340;-77
2023/07/09 12:22:51;;;;;;;;;9.00;9.00;;;;;36.65;32.78;101425.81;4997028;28;45302;-77
2023/07/09 12:25:26;;;;;;;;;10.00;10.00;;;;;36.71;32.85;101416.53;5014660;28;45741;-77
2023/07/09 12:27:51;;;;;;;;;9.00;7.50;;;;;36.79;32.37;101426.59;5014301;28;45347;-76
2023/07/09 12:30:18;;;;;;;;;10.50;8.00;;;;;36.82;32.44;101432.59;5014133;28;45307;-77
2023/07/09 12:32:46;;;;;;;;;6.50;6.50;;;;;36.69;32.26;101408.38;5014008;28;45504;-78
2023/07/09 12:35:14;;;;;;;;;7.75;7.75;;;;;36.74;32.13;101427.28;5014768;28;45444;-75
2023/07/09 12:37:41;;;;;;;;;8.75;7.50;;;;;36.79;32.31;101419.06;5014175;28;45455;-74
2023/07/09 12:40:17;;;;;;;;;7.50;7.50;;;;;36.76;31.74;101422.28;5014132;28;46280;-77
2023/07/09 12:42:43;;;;;;;;;6.50;5.75;;;;;36.83;32.48;101431.50;5014461;28;45428;-74
2023/07/09 12:45:20;;;;;;;;;10.50;9.00;;;;;36.84;31.77;101423.94;5013783;28;45273;-75
2023/07/09 12:47:47;;;;;;;;;12.00;12.00;;;;;36.95;32.08;101421.28;5014230;28;45436;-73
2023/07/09 12:50:29;;;;;;;;;6.25;5.50;;;;;37.09;31.58;101422.88;5017419;28;46221;-75
2023/07/09 12:52:56;;;;;;;;;10.75;9.25;;;;;37.04;31.57;101419.94;5017891;28;45562;-73
2023/07/09 12:55:26;;;;;;;;;7.50;6.50;;;;;37.18;30.81;101409.50;5018249;28;45443;-72
2023/07/09 12:57:57;;;;;;;;;9.50;8.50;;;;;37.38;31.13;101420.50;5000509;28;45420;-75
2023/07/09 13:00:26;;;;;;;;;6.25;6.25;;;;;37.37;30.92;101414.06;5018533;28;45399;-73
2023/07/09 13:02:58;;;;;;;;;7.00;6.25;;;;;37.45;30.91;101419.34;5000592;28;45338;-74
2023/07/09 13:05:25;;;;;;;;;8.75;7.00;;;;;37.40;30.45;101418.34;4999571;28;45387;-74
2023/07/09 13:07:54;;;;;;;;;8.75;7.00;;;;;37.24;30.62;101417.00;5017245;28;45444;-74
2023/07/09 13:10:25;;;;;;;;;8.00;8.00;;;;;37.33;30.92;101414.75;5017565;28;46409;-75
2023/07/09 13:12:52;;;;;;;;;7.00;7.00;;;;;37.38;30.92;101409.31;5017210;28;45275;-73
2023/07/09 13:15:30;;;;;;;;;6.00;6.00;;;;;37.55;30.74;101409.56;5017350;28;45420;-74
2023/07/09 13:18:02;;;;;;;;;8.00;8.00;;;;;37.64;30.67;101405.41;5017142;28;46309;-74
2023/07/09 13:20:29;;;;;;;;;6.00;6.00;;;;;37.67;30.40;101404.97;5016891;28;46366;-75
2023/07/09 13:22:55;;;;;;;;;8.00;8.00;;;;;37.83;29.90;101418.31;5017360;28;45340;-72
2023/07/09 13:25:21;;;;;;;;;5.25;5.25;;;;;37.80;30.36;101404.78;5017148;28;45312;-74
2023/07/09 13:27:47;;;;;;;;;6.00;6.00;;;;;37.81;29.81;101418.56;5017001;28;45478;-76
2023/07/09 13:30:12;;;;;;;;;7.75;6.00;;;;;37.89;30.03;101411.78;5016949;28;45423;-73
2023/07/09 13:32:38;;;;;;;;;7.00;7.00;;;;;37.94;29.62;101414.72;5017197;28;45360;-74
2023/07/09 13:35:15;;;;;;;;;6.00;6.00;;;;;38.05;29.85;101418.69;5016973;28;45470;-75
2023/07/09 13:37:40;;;;;;;;;6.75;6.75;;;;;38.10;29.73;101416.09;5016888;28;45345;-74
2023/07/09 13:40:07;;;;;;;;;9.00;7.00;;;;;38.22;29.68;101415.03;5016666;28;46905;-77
2023/07/09 13:42:32;;;;;;;;;6.00;6.00;;;;;38.30;29.41;101419.44;5017095;28;45263;-73
2023/07/09 13:44:58;;;;;;;;;5.00;5.00;;;;;38.22;28.67;101412.22;4998670;28;45346;-73
2023/07/09 13:47:25;;;;;;;;;4.50;4.50;;;;;38.23;29.38;101418.69;5017102;28;45609;-74
2023/07/09 13:49:51;;;;;;;;;6.75;5.25;;;;;38.03;29.19;101418.06;5016611;28;46103;-74
2023/07/09 13:52:20;;;;;;;;;3.75;2.25;;;;;38.21;28.73;101426.47;5016574;28;45379;-73
2023/07/09 13:54:49;;;;;;;;;5.75;5.75;;;;;38.28;28.78;101418.84;5016644;28;45368;-73
2023/07/09 13:57:18;;;;;;;;;5.25;5.25;;;;;38.21;28.81;101413.31;5016819;28;45432;-75
2023/07/09 13:59:44;;;;;;;;;6.00;6.00;;;;;38.35;28.94;101424.34;5015613;28;45932;-74
2023/07/09 14:02:32;;;;;;;;;5.00;5.00;;;;;38.39;28.43;101423.63;5016783;28;45282;-74
2023/07/09 14:05:00;;;;;;;;;5.00;5.00;;;;;38.52;28.47;101422.63;5016680;28;45530;-75
2023/07/09 14:07:31;;;;;;;;;4.50;4.50;;;;;38.60;28.35;101422.28;5016468;28;45254;-75
2023/07/09 14:09:58;;;;;;;;;5.50;4.75;;;;;38.63;28.06;101419.00;5016442;28;45283;-76
2023/07/09 14:12:24;;;;;;;;;5.25;5.25;;;;;38.46;27.85;101426.34;4998547;28;45365;-76
2023/07/09 14:14:51;;;;;;;;;6.00;6.00;;;;;38.53;27.83;101422.41;4998671;28;45215;-74
2023/07/09 14:17:17;;;;;;;;;7.00;6.50;;;;;38.17;28.32;101431.69;5016331;28;45301;-76
2023/07/09 14:19:43;;;;;;;;;5.00;5.00;;;;;38.07;28.43;101428.59;4998449;28;47360;-74
2023/07/09 14:22:26;;;;;;;;;5.75;5.75;;;;;38.04;28.39;101442.16;5015606;28;45289;-74
2023/07/09 14:24:51;;;;;;;;;5.75;4.00;;;;;38.07;28.09;101431.41;5017035;28;45386;-75
2023/07/09 14:27:17;;;;;;;;;6.00;5.00;;;;;37.90;28.53;101440.63;5016173;28;45556;-75
2023/07/09 14:29:43;;;;;;;;;4.00;4.00;;;;;37.44;28.64;101430.75;5016123;28;45295;-74
2023/07/09 14:32:36;;;;;;;;;5.00;5.00;;;;;37.55;29.09;101438.41;5016086;28;45325;-76
2023/07/09 14:35:08;;;;;;;;;5.25;5.00;;;;;37.44;28.75;101447.53;5012854;28;45502;-75
2023/07/09 14:37:33;;;;;;;;;5.75;5.00;;;;;37.41;28.70;101443.28;4999262;28;45368;-75
2023/07/09 14:39:59;;;;;;;;;5.00;5.00;;;;;37.41;28.78;101446.09;5015455;28;48752;-75
2023/07/09 14:42:24;;;;;;;;;6.25;6.25;;;;;37.42;28.66;101446.94;5016072;28;45443;-74
2023/07/09 14:44:50;;;;;;;;;4.25;4.25;;;;;37.14;29.29;101455.81;5015607;28;45312;-75
2023/07/09 14:47:20;;;;;;;;;5.00;5.00;;;;;37.07;29.49;101449.38;5016254;28;45327;-74
2023/07/09 14:49:47;;;;;;;;;4.00;4.00;;;;;36.93;29.88;101458.94;5015773;28;45537;-74
2023/07/09 14:52:17;;;;;;;;;5.75;5.75;;;;;36.90;30.09;101457.47;5015646;28;45452;-74
2023/07/09 14:54:43;;;;;;;;;4.75;4.75;;;;;36.80;30.03;101465.50;5015810;28;45454;-73
2023/07/09 14:57:19;;;;;;;;;7.50;3.75;;;;;36.64;30.16;101472.44;5015984;28;45399;-74
2023/07/09 14:59:44;;;;;;;;;8.75;4.00;;;;;36.53;30.44;101461.09;5015324;28;45514;-75
2023/07/09 15:02:33;;;;;;;;;3.25;3.25;;;;;36.39;30.44;101465.94;5016078;28;45406;-74
2023/07/09 15:04:58;;;;;;;;;5.00;4.00;;;;;36.47;30.29;101462.88;5015863;28;45417;-74
2023/07/09 15:07:29;;;;;;;;;3.50;3.25;;;;;36.50;30.08;101462.41;5015631;28;45656;-75
2023/07/09 15:09:55;;;;;;;;;3.00;3.00;;;;;36.53;30.26;101469.50;5015640;28;46087;-75
2023/07/09 15:12:29;;;;;;;;;5.00;5.00;;;;;36.59;30.19;101457.41;5014288;28;45372;-75
2023/07/09 15:15:20;;;;;;;;;3.00;3.00;;;;;36.46;30.57;101468.69;4998291;28;45404;-74
2023/07/09 15:17:46;;;;;;;;;3.00;3.00;;;;;36.37;30.56;101471.72;4997557;28;45505;-75
2023/07/09 15:20:15;;;;;;;;;5.00;5.00;;;;;36.29;30.43;101466.41;5015408;28;45381;-77
2023/07/09 15:22:42;;;;;;;;;3.00;3.00;;;;;36.32;30.53;101456.72;5015473;28;45269;-75
2023/07/09 15:25:18;;;;;;;;;3.00;3.00;;;;;36.42;30.57;101453.44;4997666;28;45348;-75
2023/07/09 15:27:44;;;;;;;;;4.50;3.50;;;;;36.41;30.33;101452.56;5015380;28;45205;-75
2023/07/09 15:30:20;;;;;;;;;2.75;2.75;;;;;36.44;30.64;101463.31;5015068;28;45517;-75
2023/07/09 15:32:47;;;;;;;;;3.50;3.50;;;;;36.36;30.59;101453.25;5015119;28;45420;-74
2023/07/09 15:35:13;;;;;;;;;4.25;4.25;;;;;36.45;31.04;101456.66;5015226;28;45317;-74
2023/07/09 15:37:39;;;;;;;;;5.50;4.00;;;;;36.51;30.31;101447.38;5015042;28;45367;-73
2023/07/09 15:40:16;;;;;;;;;4.00;4.00;;;;;36.52;30.78;101440.69;5014973;28;45289;-75
2023/07/09 15:42:41;;;;;;;;;7.75;5.00;;;;;36.70;30.34;101438.03;5015361;28;45241;-73
2023/07/09 15:45:11;;;;;;;;;4.00;4.00;;;;;36.72;30.38;101438.69;5014454;28;46435;-74
2023/07/09 15:47:38;;;;;;;;;5.50;5.50;;;;;36.66;30.36;101438.69;5015300;28;45324;-75
2023/07/09 15:50:20;;;;;;;;;3.75;3.75;;;;;36.78;30.12;101438.84;5014760;28;46232;-74
2023/07/09 15:52:46;;;;;;;;;5.00;5.00;;;;;36.78;30.39;101447.22;5014976;28;45256;-74
2023/07/09 15:55:20;;;;;;;;;4.50;3.00;;;;;36.67;30.27;101444.06;4996956;28;45378;-74
2023/07/09 15:57:47;;;;;;;;;5.00;4.25;;;;;36.45;30.39;101439.03;5015042;28;45476;-75
2023/07/09 16:00:17;;;;;;;;;7.00;5.75;;;;;36.41;30.58;101444.19;5014117;28;45265;-76
2023/07/09 16:02:43;;;;;;;;;4.25;3.25;;;;;36.28;30.79;101458.22;5006776;28;45426;-75
2023/07/09 16:05:23;;;;;;;;;11.75;5.25;;;;;35.90;31.48;101421.88;5015122;28;45435;-74